createdAt,value
2023-04-22T10:36:06.110Z,99.21
2023-04-22T10:37:23.404Z,98.78
2023-04-22T10:38:23.375Z,99.07
2023-04-22T10:39:23.383Z,98.39
2023-04-22T10:40:23.361Z,97.81
2023-04-22T10:41:23.347Z,98.49
2023-04-22T10:42:23.342Z,98.49
2023-04-22T10:43:23.302Z,97.67
2023-04-22T10:44:23.310Z,97.81
2023-04-22T10:45:23.272Z,98.29
2023-04-22T10:46:23.301Z,98.20
2023-04-22T10:47:23.305Z,99.16
2023-04-22T10:48:23.255Z,97.62
2023-04-22T10:49:23.264Z,96.84
2023-04-22T10:50:23.215Z,97.24
2023-04-22T10:51:23.214Z,97.96
2023-04-22T10:52:23.218Z,97.57
2023-04-22T10:53:23.185Z,98.92
2023-04-22T10:54:23.194Z,97.47
2023-04-22T10:55:23.160Z,97.09
2023-04-22T10:56:23.175Z,97.47
2023-04-22T10:57:23.136Z,97.57
2023-04-22T10:58:23.152Z,99.21
2023-04-22T10:59:23.099Z,98.83
2023-04-22T11:00:23.586Z,97.57
2023-04-22T11:01:23.118Z,97.47
2023-04-22T11:02:23.095Z,97.19
2023-04-22T11:03:23.196Z,97.28
2023-04-22T11:04:23.209Z,96.89
2023-04-22T11:05:25.889Z,96.75
2023-04-22T11:10:26.396Z,97.67
2023-04-22T11:11:26.328Z,99.11
2023-04-22T11:12:26.319Z,97.96
2023-04-22T11:13:26.303Z,97.67
2023-04-22T11:14:26.320Z,97.42
2023-04-22T11:15:26.312Z,96.84
2023-04-22T11:16:26.306Z,97.52
2023-04-22T11:17:26.286Z,97.52
2023-04-22T11:18:26.275Z,96.08
2023-04-22T11:19:26.226Z,95.73
2023-04-22T11:20:26.259Z,96.80
2023-04-22T11:21:26.226Z,97.09
2023-04-22T11:22:26.207Z,96.22
2023-04-22T11:23:26.184Z,94.62
2023-04-22T11:24:26.197Z,95.20
2023-04-22T11:25:26.177Z,94.72
2023-04-22T11:26:26.157Z,94.24
2023-04-22T11:27:26.169Z,94.72
2023-04-22T11:28:26.155Z,95.78
2023-04-22T11:29:26.224Z,94.62
2023-04-22T11:30:26.131Z,95.25
2023-04-22T11:31:26.094Z,94.29
2023-04-22T11:32:26.120Z,94.29
2023-04-22T11:33:26.081Z,93.71
2023-04-22T11:34:26.051Z,95.64
2023-04-22T11:35:26.048Z,94.33
2023-04-22T11:36:26.035Z,91.53
2023-04-22T11:37:26.033Z,90.61
2023-04-22T11:38:26.060Z,93.13
2023-04-22T11:39:26.013Z,92.69
2023-04-22T11:40:30.161Z,92.88
2023-04-22T11:41:25.993Z,93.41
2023-04-22T11:42:25.982Z,94.72
2023-04-22T11:43:25.943Z,95.25
2023-04-22T11:44:25.938Z,91.53
2023-04-22T11:45:25.955Z,92.07
2023-04-22T11:46:25.966Z,93.51
2023-04-22T11:47:25.933Z,94.72
2023-04-22T11:48:25.888Z,93.71
2023-04-22T11:49:25.887Z,92.79
2023-04-22T11:50:25.879Z,93.13
2023-04-22T11:51:25.848Z,93.17
2023-04-22T11:52:25.862Z,94.04
2023-04-22T11:53:25.828Z,93.66
2023-04-22T11:54:25.838Z,95.83
2023-04-22T11:55:25.819Z,95.88
2023-04-22T11:56:25.816Z,94.04
2023-04-22T11:57:25.800Z,95.68
2023-04-22T11:58:25.798Z,96.36
2023-04-22T11:59:25.784Z,95.54
2023-04-22T12:00:25.800Z,96.66
2023-04-22T12:01:25.751Z,97.42
2023-04-22T12:02:25.905Z,96.36
2023-04-22T12:03:25.845Z,97.09
2023-04-22T12:04:25.762Z,95.54
2023-04-22T12:05:25.744Z,93.71
2023-04-22T12:06:25.706Z,92.83
2023-04-22T12:07:25.683Z,93.12
2023-04-22T12:08:25.661Z,92.83
2023-04-22T12:09:25.704Z,92.88
2023-04-22T12:10:25.669Z,93.94
2023-04-22T12:11:25.617Z,92.35
2023-04-22T12:12:25.612Z,92.20
2023-04-22T12:13:25.593Z,92.06
2023-04-22T12:14:25.609Z,92.35
2023-04-22T12:15:25.638Z,92.97
2023-04-22T12:16:25.568Z,91.33
2023-04-22T12:17:25.629Z,91.33
2023-04-22T12:18:25.568Z,91.33
2023-04-22T12:22:05.035Z,93.47
2023-04-22T12:23:04.997Z,94.34
2023-04-22T12:26:13.203Z,95.54
2023-04-22T12:27:13.177Z,94.19
2023-04-22T12:28:13.181Z,95.54
2023-04-22T12:29:13.161Z,95.35
2023-04-22T12:30:13.182Z,95.73
2023-04-22T12:31:13.173Z,94.77
2023-04-22T12:32:13.174Z,93.85
2023-04-22T12:33:13.144Z,94.62
2023-04-22T12:34:13.147Z,95.88
2023-04-22T12:35:13.148Z,95.45
2023-04-22T12:36:13.141Z,94.57
2023-04-22T12:37:13.125Z,94.96
2023-04-22T12:38:13.130Z,95.06
2023-04-22T12:39:13.110Z,94.57
2023-04-22T12:40:13.117Z,94.96
2023-04-22T12:41:13.108Z,93.95
2023-04-22T12:42:13.092Z,94.38
2023-04-22T12:43:13.084Z,95.25
2023-04-22T12:44:13.084Z,95.68
2023-04-22T12:45:13.066Z,95.68
2023-04-22T12:46:13.068Z,94.67
2023-04-22T12:47:13.052Z,95.25
2023-04-22T12:48:13.051Z,96.12
2023-04-22T12:49:13.037Z,94.76
2023-04-22T12:50:13.020Z,94.62
2023-04-22T12:51:13.014Z,94.87
2023-04-22T12:52:13.025Z,94.77
2023-04-22T15:01:52.257Z,99.99
2023-04-22T15:02:52.214Z,99.99
